createdAt,value
2019-02-28T00:02:27.776Z,48.20
2019-02-28T00:04:59.504Z,46.00
2019-02-28T00:07:31.236Z,46.40
2019-02-28T00:10:02.850Z,48.20
2019-02-28T00:12:35.924Z,48.20
2019-02-28T00:15:07.788Z,48.40
2019-02-28T00:17:42.701Z,48.80
2019-02-28T00:20:12.892Z,46.00
2019-02-28T00:22:48.428Z,48.40
2019-02-28T00:25:17.691Z,46.80
2019-02-28T00:27:53.459Z,46.80
2019-02-28T00:30:25.507Z,43.00
2019-02-28T00:32:59.366Z,44.60
2019-02-28T00:35:30.498Z,46.80
2019-02-28T00:38:02.148Z,49.80
2019-02-28T00:40:34.786Z,48.60
2019-02-28T00:43:06.311Z,46.80
2019-02-28T00:45:40.016Z,48.80
2019-02-28T00:48:12.439Z,48.20
2019-02-28T00:50:44.230Z,48.20
2019-02-28T00:53:15.765Z,48.40
2019-02-28T00:55:47.653Z,45.60
2019-02-28T00:58:20.507Z,52.00
2019-02-28T01:00:52.199Z,55.00
2019-02-28T01:03:27.407Z,49.80
2019-02-28T01:05:58.314Z,51.00
2019-02-28T01:08:30.260Z,51.60
2019-02-28T01:11:02.433Z,52.00
2019-02-28T01:13:34.148Z,51.80
2019-02-28T01:16:05.525Z,51.60
2019-02-28T01:18:37.217Z,49.00
2019-02-28T01:21:09.049Z,52.40
2019-02-28T01:23:41.628Z,47.80
2019-02-28T01:26:13.201Z,54.20
2019-02-28T01:28:44.897Z,55.40
2019-02-28T01:31:16.715Z,49.20
2019-02-28T01:33:56.064Z,49.00
2019-02-28T01:36:26.599Z,51.00
2019-02-28T01:38:58.866Z,51.00
2019-02-28T01:41:30.989Z,52.80
2019-02-28T01:44:02.843Z,53.80
2019-02-28T01:46:34.676Z,51.00
2019-02-28T01:49:07.742Z,55.60
2019-02-28T01:51:39.245Z,50.40
2019-02-28T01:54:10.617Z,54.60
2019-02-28T01:56:42.186Z,57.80
2019-02-28T01:59:14.848Z,61.60
2019-02-28T02:01:46.560Z,50.00
2019-02-28T02:04:17.849Z,63.40
2019-02-28T02:06:49.582Z,66.20
2019-02-28T02:09:21.375Z,64.80
2019-02-28T02:11:53.091Z,71.00
2019-02-28T02:14:24.797Z,79.00
2019-02-28T02:16:58.282Z,83.00
2019-02-28T02:19:30.096Z,82.40
2019-02-28T02:22:01.897Z,89.40
2019-02-28T02:24:34.653Z,85.75
2019-02-28T02:27:06.153Z,96.50
2019-02-28T02:29:37.695Z,95.00
2019-02-28T02:32:09.307Z,95.25
2019-02-28T02:34:40.774Z,103.75
2019-02-28T02:37:12.593Z,98.25
2019-02-28T02:39:44.117Z,92.80
2019-02-28T02:42:17.907Z,93.25
2019-02-28T02:44:49.480Z,90.25
2019-02-28T02:47:21.433Z,91.20
2019-02-28T02:49:57.535Z,88.75
2019-02-28T02:52:30.438Z,117.75
2019-02-28T02:55:02.688Z,152.25
2019-02-28T02:57:33.928Z,137.50
2019-02-28T03:00:13.188Z,100.50
2019-02-28T03:02:40.752Z,94.75
2019-02-28T03:05:12.452Z,101.00
2019-02-28T03:07:44.210Z,98.25
2019-02-28T03:10:19.157Z,105.50
2019-02-28T03:12:49.775Z,84.50
2019-02-28T03:15:25.922Z,92.20
2019-02-28T03:17:54.665Z,89.00
2019-02-28T03:20:26.142Z,97.00
2019-02-28T03:23:02.222Z,120.25
2019-02-28T03:25:30.960Z,144.50
2019-02-28T03:28:02.684Z,168.50
2019-02-28T03:30:34.358Z,135.50
2019-02-28T03:33:05.531Z,134.75
2019-02-28T03:35:43.107Z,119.00
2019-02-28T03:38:11.618Z,128.75
2019-02-28T03:40:43.704Z,132.50
2019-02-28T03:43:15.431Z,113.00
2019-02-28T03:45:47.042Z,120.25
2019-02-28T03:48:18.486Z,107.50
2019-02-28T03:50:50.216Z,91.00
2019-02-28T03:53:22.259Z,72.20
2019-02-28T03:55:54.075Z,67.00
2019-02-28T03:58:26.329Z,65.80
2019-02-28T04:00:58.117Z,71.40
2019-02-28T04:03:33.318Z,63.00
2019-02-28T04:06:04.809Z,55.00
2019-02-28T04:08:36.632Z,54.00
2019-02-28T04:11:08.163Z,54.00
2019-02-28T04:13:40.259Z,48.40
2019-02-28T04:16:11.876Z,55.20
2019-02-28T04:18:46.275Z,46.20
2019-02-28T04:21:16.657Z,49.40
2019-02-28T04:23:48.109Z,46.60
2019-02-28T04:26:19.763Z,46.20
2019-02-28T04:28:54.712Z,46.40
2019-02-28T04:31:25.728Z,46.20
2019-02-28T04:33:57.433Z,48.80
2019-02-28T04:36:35.448Z,47.20
2019-02-28T04:39:06.420Z,44.20
2019-02-28T04:41:38.220Z,42.60
2019-02-28T04:44:09.791Z,42.00
2019-02-28T04:46:41.466Z,43.20
2019-02-28T04:49:13.220Z,41.00
2019-02-28T04:51:44.760Z,38.20
2019-02-28T04:54:16.289Z,37.20
2019-02-28T04:56:47.999Z,36.40
2019-02-28T04:59:19.716Z,35.60
2019-02-28T05:01:51.430Z,35.60
2019-02-28T05:04:23.264Z,34.20
2019-02-28T05:06:55.234Z,34.00
2019-02-28T05:09:27.569Z,31.40
2019-02-28T05:11:59.041Z,29.40
2019-02-28T05:14:31.027Z,30.80
2019-02-28T05:17:02.902Z,30.60
2019-02-28T05:19:35.850Z,33.20
2019-02-28T05:22:11.272Z,32.80
2019-02-28T05:24:43.754Z,31.20
2019-02-28T05:27:15.570Z,31.20
2019-02-28T05:29:46.885Z,29.80
2019-02-28T05:32:18.292Z,32.40
2019-02-28T05:34:51.072Z,37.60
2019-02-28T05:37:22.908Z,35.60
2019-02-28T05:39:54.546Z,33.00
2019-02-28T05:42:26.177Z,29.20
2019-02-28T05:44:57.927Z,32.00
2019-02-28T05:47:32.308Z,32.00
2019-02-28T05:50:02.962Z,33.60
2019-02-28T05:52:34.592Z,33.40
2019-02-28T05:55:06.529Z,31.20
2019-02-28T05:57:39.443Z,32.60
2019-02-28T06:00:12.558Z,32.40
2019-02-28T06:02:44.401Z,32.20
2019-02-28T06:05:15.886Z,30.00
2019-02-28T06:07:47.506Z,30.20
2019-02-28T06:10:24.648Z,29.20
2019-02-28T06:12:55.767Z,30.60
2019-02-28T06:15:28.947Z,26.20
2019-02-28T06:18:01.141Z,21.80
2019-02-28T06:20:32.819Z,29.60
2019-02-28T06:23:06.356Z,30.00
2019-02-28T06:25:37.788Z,30.00
2019-02-28T06:28:09.346Z,32.00
2019-02-28T06:30:42.642Z,33.40
2019-02-28T06:33:15.415Z,29.40
2019-02-28T06:35:49.510Z,29.20
2019-02-28T06:38:20.534Z,32.20
2019-02-28T06:40:52.560Z,29.80
2019-02-28T06:43:24.300Z,31.00
2019-02-28T06:45:56.246Z,28.60
2019-02-28T06:48:28.874Z,28.20
2019-02-28T06:51:01.514Z,30.00
2019-02-28T06:53:41.486Z,30.80
2019-02-28T06:56:13.471Z,29.00
2019-02-28T06:58:45.366Z,29.00
2019-02-28T07:01:19.196Z,30.20
2019-02-28T07:03:53.670Z,31.20
2019-02-28T07:06:25.842Z,30.00
2019-02-28T07:09:01.826Z,30.00
2019-02-28T07:11:31.306Z,28.40
2019-02-28T07:14:12.676Z,30.40
2019-02-28T07:16:42.230Z,31.00
2019-02-28T07:19:14.164Z,35.60
2019-02-28T07:21:46.614Z,38.20
2019-02-28T07:24:18.808Z,42.40
2019-02-28T07:26:52.314Z,37.00
2019-02-28T07:29:25.412Z,59.60
2019-02-28T07:32:01.286Z,36.60
2019-02-28T07:34:31.700Z,35.00
2019-02-28T07:37:03.515Z,37.00
2019-02-28T07:39:36.503Z,39.20
2019-02-28T07:42:10.187Z,37.20
2019-02-28T07:44:41.589Z,36.20
2019-02-28T07:47:17.177Z,38.20
2019-02-28T07:49:46.383Z,38.00
2019-02-28T07:52:20.366Z,36.00
2019-02-28T07:54:55.592Z,33.40
2019-02-28T07:57:28.690Z,37.60
2019-02-28T08:00:01.169Z,36.40
2019-02-28T08:02:38.862Z,35.40
2019-02-28T08:05:09.395Z,35.20
2019-02-28T08:07:41.290Z,36.20
2019-02-28T08:10:23.257Z,34.20
2019-02-28T08:13:03.133Z,32.60
2019-02-28T08:15:33.323Z,34.80
2019-02-28T08:18:05.870Z,34.20
2019-02-28T08:20:37.871Z,34.80
2019-02-28T08:23:09.964Z,31.20
2019-02-28T08:25:44.819Z,31.00
2019-02-28T08:28:16.319Z,31.00
2019-02-28T08:30:47.953Z,31.80
2019-02-28T08:33:19.585Z,34.00
2019-02-28T08:35:52.719Z,28.20
2019-02-28T08:38:24.440Z,34.20
2019-02-28T08:40:56.086Z,32.40
2019-02-28T08:43:28.801Z,32.40
2019-02-28T08:46:02.676Z,32.20
2019-02-28T08:48:34.922Z,31.80
2019-02-28T08:51:06.754Z,39.20
2019-02-28T08:53:40.547Z,35.80
2019-02-28T08:56:14.051Z,35.00
2019-02-28T08:58:45.273Z,31.00
2019-02-28T09:01:17.162Z,34.80
2019-02-28T09:03:50.240Z,34.00
2019-02-28T09:06:27.587Z,68.20
2019-02-28T09:09:00.604Z,45.60
2019-02-28T09:11:34.026Z,41.60
2019-02-28T09:14:05.909Z,30.60
2019-02-28T09:16:39.710Z,36.00
2019-02-28T09:19:13.228Z,35.00
2019-02-28T09:21:45.286Z,31.40
2019-02-28T09:24:17.214Z,28.00
2019-02-28T09:26:49.601Z,30.00
2019-02-28T09:29:23.616Z,30.60
2019-02-28T09:31:57.095Z,30.60
2019-02-28T09:34:30.637Z,29.40
2019-02-28T09:37:02.712Z,32.20
2019-02-28T09:39:34.775Z,32.00
2019-02-28T09:42:07.101Z,29.80
2019-02-28T09:44:38.892Z,30.40
2019-02-28T09:47:11.713Z,30.20
2019-02-28T09:49:44.272Z,31.20
2019-02-28T09:52:16.380Z,30.60
2019-02-28T09:54:48.090Z,32.80
2019-02-28T09:57:19.876Z,33.40
2019-02-28T09:59:51.606Z,31.40
2019-02-28T10:02:24.878Z,33.00
2019-02-28T10:04:56.837Z,30.80
2019-02-28T10:07:29.030Z,25.20
2019-02-28T10:10:04.782Z,31.20
2019-02-28T10:12:42.038Z,30.20
2019-02-28T10:15:12.573Z,31.80
2019-02-28T10:17:44.619Z,30.80
2019-02-28T10:20:27.353Z,29.20
2019-02-28T10:23:00.618Z,30.40
2019-02-28T10:25:32.273Z,30.00
2019-02-28T10:28:05.520Z,32.00
2019-02-28T10:30:41.361Z,33.00
2019-02-28T10:33:17.293Z,28.60
2019-02-28T10:35:51.413Z,31.00
2019-02-28T10:38:25.227Z,30.20
2019-02-28T10:40:58.523Z,29.00
2019-02-28T10:43:31.752Z,29.80
2019-02-28T10:46:05.414Z,28.20
2019-02-28T10:48:41.826Z,28.00
2019-02-28T10:51:13.903Z,31.80
2019-02-28T10:53:45.281Z,30.20
2019-02-28T10:56:17.119Z,29.00
2019-02-28T10:58:50.090Z,31.20
2019-02-28T11:01:23.728Z,27.80
2019-02-28T11:03:55.520Z,30.80
2019-02-28T11:06:28.297Z,29.00
2019-02-28T11:09:00.436Z,32.00
2019-02-28T11:11:32.394Z,29.40
2019-02-28T11:14:04.229Z,29.40
2019-02-28T11:16:36.907Z,32.20
2019-02-28T11:19:08.898Z,29.40
2019-02-28T11:21:40.941Z,31.80
2019-02-28T11:24:13.027Z,27.80
2019-02-28T11:26:45.601Z,28.80
2019-02-28T11:29:17.214Z,30.40
2019-02-28T11:31:50.553Z,29.40
2019-02-28T11:34:23.726Z,29.60
2019-02-28T11:36:55.978Z,25.00
2019-02-28T11:39:30.283Z,30.20
2019-02-28T11:42:00.855Z,30.00
2019-02-28T11:44:32.373Z,31.80
2019-02-28T11:47:04.079Z,28.40
2019-02-28T11:49:35.846Z,30.60
2019-02-28T11:52:08.320Z,29.80
2019-02-28T11:54:40.033Z,28.00
2019-02-28T11:57:11.547Z,29.80
2019-02-28T11:59:43.044Z,36.80
2019-02-28T12:02:14.672Z,35.20
2019-02-28T12:04:46.446Z,37.80
2019-02-28T12:07:17.716Z,34.60
2019-02-28T12:09:51.459Z,39.20
2019-02-28T12:12:22.652Z,34.20
2019-02-28T12:14:54.316Z,36.60
2019-02-28T12:17:28.548Z,34.20
2019-02-28T12:19:59.509Z,36.20
2019-02-28T12:22:30.971Z,35.80
2019-02-28T12:25:04.458Z,36.00
2019-02-28T12:27:36.389Z,36.00
2019-02-28T12:30:10.091Z,35.60
2019-02-28T12:32:43.364Z,33.00
2019-02-28T12:35:15.389Z,36.00
2019-02-28T12:37:47.502Z,35.20
2019-02-28T12:40:21.420Z,34.40
2019-02-28T12:42:53.448Z,36.20
2019-02-28T12:45:27.714Z,31.00
2019-02-28T12:48:01.255Z,39.00
2019-02-28T12:50:33.168Z,35.20
2019-02-28T12:53:05.558Z,35.40
2019-02-28T12:55:38.792Z,35.20
2019-02-28T12:58:10.826Z,38.00
2019-02-28T13:00:43.046Z,42.00
2019-02-28T13:03:19.213Z,35.60
2019-02-28T13:05:49.469Z,42.40
2019-02-28T13:08:21.433Z,43.20
2019-02-28T13:10:52.883Z,43.60
2019-02-28T13:13:27.446Z,42.20
2019-02-28T13:15:57.847Z,42.20
2019-02-28T13:18:30.622Z,45.00
2019-02-28T13:21:02.269Z,48.40
2019-02-28T13:23:34.566Z,45.60
2019-02-28T13:26:05.907Z,47.40
2019-02-28T13:28:38.254Z,49.40
2019-02-28T13:31:09.737Z,53.00
2019-02-28T13:33:41.432Z,51.60
2019-02-28T13:36:13.111Z,53.20
2019-02-28T13:38:44.799Z,60.40
2019-02-28T13:41:18.308Z,64.80
2019-02-28T13:43:49.687Z,67.60
2019-02-28T13:46:21.324Z,78.60
2019-02-28T13:48:52.944Z,71.60
2019-02-28T13:51:24.367Z,72.60
2019-02-28T13:53:55.801Z,71.20
2019-02-28T13:56:32.929Z,84.60
2019-02-28T13:59:07.854Z,80.60
2019-02-28T14:01:39.272Z,127.50
2019-02-28T14:04:10.815Z,124.50
2019-02-28T14:06:42.084Z,112.25
2019-02-28T14:09:13.769Z,149.00
2019-02-28T14:11:45.872Z,149.25
2019-02-28T14:14:17.315Z,141.25
2019-02-28T14:16:48.958Z,146.75
2019-02-28T14:19:21.391Z,129.50
2019-02-28T14:21:52.913Z,117.50
2019-02-28T14:24:27.629Z,105.20
2019-02-28T14:26:58.068Z,90.60
2019-02-28T14:29:30.997Z,77.80
2019-02-28T14:32:04.592Z,81.80
2019-02-28T14:34:35.800Z,71.20
2019-02-28T14:37:07.470Z,79.60
2019-02-28T14:39:39.862Z,87.40
2019-02-28T14:42:12.974Z,96.80
2019-02-28T14:44:44.651Z,92.00
2019-02-28T14:47:16.297Z,83.20
2019-02-28T14:49:47.959Z,89.60
2019-02-28T14:52:19.919Z,95.20
2019-02-28T14:54:51.837Z,92.60
2019-02-28T14:57:23.387Z,102.50
2019-02-28T14:59:59.987Z,100.20
2019-02-28T15:02:31.619Z,100.00
2019-02-28T15:05:03.442Z,95.20
2019-02-28T15:07:38.188Z,104.00
2019-02-28T15:10:12.510Z,117.50
2019-02-28T15:12:44.445Z,117.75
2019-02-28T15:15:18.880Z,107.00
2019-02-28T15:17:50.983Z,113.25
2019-02-28T15:20:22.703Z,112.25
2019-02-28T15:22:56.178Z,116.50
2019-02-28T15:25:27.869Z,106.75
2019-02-28T15:27:59.845Z,109.75
2019-02-28T15:30:33.694Z,106.00
2019-02-28T15:33:06.806Z,127.25
2019-02-28T15:35:38.530Z,126.50
2019-02-28T15:38:10.551Z,112.50
2019-02-28T15:40:42.107Z,123.00
2019-02-28T15:43:16.903Z,122.25
2019-02-28T15:45:47.143Z,120.00
2019-02-28T15:48:18.866Z,127.75
2019-02-28T15:50:51.832Z,115.75
2019-02-28T15:53:24.042Z,113.75
2019-02-28T15:55:55.955Z,103.75
2019-02-28T15:58:27.945Z,101.00
2019-02-28T16:00:59.869Z,93.00
2019-02-28T16:03:31.926Z,99.20
2019-02-28T16:06:03.562Z,87.40
2019-02-28T16:08:35.492Z,80.80
2019-02-28T16:11:07.461Z,70.40
2019-02-28T16:13:39.454Z,73.80
2019-02-28T16:16:11.163Z,78.00
2019-02-28T16:18:44.057Z,82.40
2019-02-28T16:21:16.870Z,86.60
2019-02-28T16:23:48.913Z,89.80
2019-02-28T16:26:21.778Z,84.00
2019-02-28T16:28:54.597Z,87.60
2019-02-28T16:31:26.665Z,87.00
2019-02-28T16:34:07.978Z,82.40
2019-02-28T16:36:32.389Z,84.60
2019-02-28T16:39:04.965Z,85.20
2019-02-28T16:41:38.486Z,86.40
2019-02-28T16:44:10.407Z,81.60
2019-02-28T16:46:42.224Z,89.80
2019-02-28T16:49:14.035Z,83.80
2019-02-28T16:51:46.023Z,84.40
2019-02-28T16:54:19.426Z,79.40
2019-02-28T16:56:51.575Z,85.20
2019-02-28T16:59:23.536Z,84.80
2019-02-28T17:01:55.809Z,81.80
2019-02-28T17:04:27.734Z,82.80
2019-02-28T17:06:59.551Z,82.20
2019-02-28T17:09:38.905Z,89.60
2019-02-28T17:12:28.382Z,86.20
2019-02-28T17:15:01.674Z,82.20
2019-02-28T17:17:46.946Z,86.40
2019-02-28T17:20:18.250Z,85.00
2019-02-28T17:22:50.353Z,85.20
2019-02-28T17:25:22.586Z,81.00
2019-02-28T17:28:00.117Z,72.80
2019-02-28T17:30:50.569Z,76.80
2019-02-28T17:33:23.144Z,75.60
2019-02-28T17:35:54.760Z,71.80
2019-02-28T17:38:26.852Z,70.80
2019-02-28T17:40:58.786Z,69.60
2019-02-28T17:43:31.558Z,59.00
2019-02-28T17:46:03.413Z,61.80
2019-02-28T17:48:48.783Z,68.80
2019-02-28T17:51:32.526Z,64.60
2019-02-28T17:54:17.246Z,59.00
2019-02-28T17:57:34.019Z,59.80
2019-02-28T18:00:27.791Z,64.20
2019-02-28T18:03:55.129Z,60.80
2019-02-28T18:07:06.144Z,65.80
2019-02-28T18:09:58.177Z,71.40
2019-02-28T18:13:19.961Z,73.00
2019-02-28T18:16:07.221Z,68.40
2019-02-28T18:19:37.924Z,72.20
2019-02-28T18:22:52.007Z,72.20
2019-02-28T18:26:08.736Z,76.20
2019-02-28T18:29:08.898Z,70.60
2019-02-28T18:31:41.909Z,73.80
2019-02-28T18:34:21.445Z,66.60
2019-02-28T18:36:53.047Z,67.00
2019-02-28T18:39:25.449Z,80.20
2019-02-28T18:41:57.053Z,74.60
2019-02-28T18:44:29.913Z,76.40
2019-02-28T18:47:02.946Z,71.40
2019-02-28T18:49:35.418Z,68.00
2019-02-28T18:52:08.721Z,72.60
2019-02-28T18:54:40.676Z,76.60
2019-02-28T18:57:12.126Z,74.80
2019-02-28T18:59:43.861Z,71.20
2019-02-28T19:02:15.606Z,71.00
2019-02-28T19:04:47.220Z,58.20
2019-02-28T19:07:20.188Z,63.00
2019-02-28T19:09:52.631Z,70.00
2019-02-28T19:12:24.335Z,68.20
2019-02-28T19:14:55.881Z,69.80
2019-02-28T19:17:27.944Z,65.20
2019-02-28T19:20:00.317Z,72.20
2019-02-28T19:22:32.027Z,70.00
2019-02-28T19:25:03.622Z,64.00
2019-02-28T19:27:35.628Z,68.80
2019-02-28T19:30:09.148Z,68.60
2019-02-28T19:32:42.377Z,75.80
2019-02-28T19:35:14.396Z,77.40
2019-02-28T19:37:45.970Z,69.40
2019-02-28T19:40:17.520Z,73.00
2019-02-28T19:42:49.296Z,75.20
2019-02-28T19:45:21.049Z,75.40
2019-02-28T19:47:52.768Z,75.40
2019-02-28T19:50:24.833Z,77.60
2019-02-28T19:52:56.451Z,74.80
2019-02-28T19:55:28.029Z,73.00
2019-02-28T19:57:59.787Z,65.60
2019-02-28T20:00:31.577Z,73.80
2019-02-28T20:03:03.031Z,66.80
2019-02-28T20:05:34.970Z,63.00
2019-02-28T20:08:07.645Z,67.20
2019-02-28T20:10:39.458Z,65.40
2019-02-28T20:13:10.857Z,65.80
2019-02-28T20:15:42.732Z,74.40
2019-02-28T20:18:16.614Z,68.60
2019-02-28T20:20:48.551Z,67.60
2019-02-28T20:23:20.095Z,73.40
2019-02-28T20:25:52.438Z,68.00
2019-02-28T20:28:23.952Z,70.00
2019-02-28T20:30:55.954Z,71.40
2019-02-28T20:33:27.716Z,66.60
2019-02-28T20:35:59.554Z,71.00
2019-02-28T20:38:33.199Z,67.60
2019-02-28T20:41:05.146Z,70.20
2019-02-28T20:43:37.665Z,71.00
2019-02-28T20:46:09.148Z,67.20
2019-02-28T20:48:41.528Z,68.60
2019-02-28T20:51:13.989Z,73.00
2019-02-28T20:53:45.914Z,70.60
2019-02-28T20:56:17.339Z,64.60
2019-02-28T20:58:49.125Z,63.80
2019-02-28T21:01:20.600Z,67.40
2019-02-28T21:03:52.654Z,65.00
2019-02-28T21:06:24.421Z,63.00
2019-02-28T21:08:55.989Z,60.60
2019-02-28T21:11:27.857Z,65.80
2019-02-28T21:14:00.739Z,69.00
2019-02-28T21:16:32.209Z,68.20
2019-02-28T21:19:03.722Z,66.20
2019-02-28T21:21:35.428Z,67.40
2019-02-28T21:24:08.744Z,66.60
2019-02-28T21:26:40.547Z,66.40
2019-02-28T21:29:12.340Z,70.20
2019-02-28T21:31:44.246Z,68.20
2019-02-28T21:34:18.509Z,70.00
2019-02-28T21:36:50.579Z,74.00
2019-02-28T21:39:22.343Z,68.80
2019-02-28T21:41:54.208Z,69.00
2019-02-28T21:44:25.749Z,72.00
2019-02-28T21:46:57.264Z,74.60
2019-02-28T21:49:28.942Z,72.60
2019-02-28T21:52:00.704Z,72.20
2019-02-28T21:54:32.775Z,66.80
2019-02-28T21:57:04.071Z,73.40
2019-02-28T21:59:35.784Z,72.00
2019-02-28T22:02:07.867Z,71.40
2019-02-28T22:04:39.172Z,73.00
2019-02-28T22:07:10.552Z,71.00
2019-02-28T22:09:42.227Z,69.80
2019-02-28T22:12:13.806Z,70.40
2019-02-28T22:14:45.376Z,66.20
2019-02-28T22:17:16.833Z,69.40
2019-02-28T22:19:48.503Z,72.20
2019-02-28T22:22:20.056Z,72.20
2019-02-28T22:24:51.708Z,71.00
2019-02-28T22:27:23.291Z,72.40
2019-02-28T22:29:55.077Z,65.80
2019-02-28T22:32:39.195Z,68.40
2019-02-28T22:35:17.034Z,70.00
2019-02-28T22:37:48.618Z,75.00
2019-02-28T22:40:20.049Z,71.80
2019-02-28T22:42:51.694Z,68.80
2019-02-28T22:45:23.133Z,72.20
2019-02-28T22:47:54.705Z,74.60
2019-02-28T22:50:26.303Z,70.20
2019-02-28T22:52:58.179Z,64.60
2019-02-28T22:55:29.819Z,71.60
2019-02-28T22:58:03.132Z,66.40
2019-02-28T23:01:06.334Z,72.40
2019-02-28T23:03:39.799Z,71.60
2019-02-28T23:06:11.547Z,70.60
2019-02-28T23:08:44.267Z,66.80
2019-02-28T23:11:16.780Z,67.60
2019-02-28T23:13:48.590Z,68.20
2019-02-28T23:16:20.717Z,57.80
2019-02-28T23:18:52.454Z,68.20
2019-02-28T23:21:24.186Z,70.80
2019-02-28T23:23:55.566Z,64.20
2019-02-28T23:26:30.861Z,68.00
2019-02-28T23:29:12.527Z,70.20
2019-02-28T23:32:24.380Z,68.00
2019-02-28T23:34:56.966Z,62.00
2019-02-28T23:37:29.054Z,61.40
2019-02-28T23:40:01.302Z,67.60
2019-02-28T23:42:34.041Z,66.60
2019-02-28T23:45:05.530Z,66.40
2019-02-28T23:47:37.599Z,66.20
2019-02-28T23:50:09.825Z,70.00
2019-02-28T23:52:41.686Z,61.40
2019-02-28T23:55:13.407Z,66.20
2019-02-28T23:57:45.028Z,70.80
